David Froholt fløy solo! PDF Skriv ut E-post
Skrevet av Dmytro Yakovenko   
tirsdag 24. mars 2015 23:07

David Froholt fløy på torsdag, 19. mars, sin første solotur i strålende vårvær. Han har fløyet alle sine leksjoner så langt med instruktør Jorge Sanches. Flyskolen og Styret gratulerer så mye til David for vel gjennomført første solo!

Flere bilder kan sees i "Galleri" eller ved å klikke linken under:

Flere bilder

 

Sist oppdatert tirsdag 24. mars 2015 23:14
 
 
METAR
2017/11/23 18:20 ENCN 231820Z 24017G27KT 9999 FEW012CB SCT030 06/03 Q0988 WS R21
TAF
2017/11/23 18:37 TAF ENCN 231700Z 2318/2322 23015KT 9999 SCT030 TEMPO 2318/2322 24020G30KT SHRAGS SCT015CB BKN020
LN-KFK
Til service
VFR dag
07:44 - 16:43
Brannvakt
Inaktiv
Banner
Banner
Banner
Banner
Banner